Time;durP1;ratioP1;P1;durP2;ratioP2;P2;SDS_P1;SDS_P2;PMS_P1;PMS_P2;Temp;Humidity;BMP_temperature;BMP_pressure;BME280_temperature;BME280_humidity;BME280_pressure;Samples;Min_cycle;Max_cycle;Signal;HPM_P1;HPM_P2
2021/09/26 00:00:59;;;;;;;30.50;20.80;;;15.60;99.90;;;;;;5000287;28;38844;-79
2021/09/26 00:03:25;;;;;;;32.03;20.35;;;15.60;99.90;;;;;;5000055;28;38426;-79
2021/09/26 00:05:51;;;;;;;24.48;18.23;;;15.60;99.90;;;;;;5016396;28;38899;-78
2021/09/26 00:08:17;;;;;;;32.28;21.92;;;15.60;99.90;;;;;;4997950;28;37821;-78
2021/09/26 00:10:44;;;;;;;29.92;20.98;;;15.60;99.90;;;;;;4998560;28;36921;-78
2021/09/26 00:13:10;;;;;;;37.05;21.75;;;15.60;99.90;;;;;;4998814;28;36166;-79
2021/09/26 00:15:36;;;;;;;32.10;21.38;;;15.70;99.90;;;;;;5002975;28;40425;-78
2021/09/26 00:18:02;;;;;;;30.42;19.35;;;15.70;99.90;;;;;;5004659;28;39361;-78
2021/09/26 00:20:29;;;;;;;34.65;22.38;;;15.70;99.90;;;;;;5001434;28;38890;-78
2021/09/26 00:22:56;;;;;;;27.65;18.88;;;15.70;99.90;;;;;;5003571;28;38326;-78
2021/09/26 00:25:22;;;;;;;37.50;24.05;;;15.70;99.90;;;;;;5000944;28;39766;-78
2021/09/26 00:27:48;;;;;;;36.72;23.95;;;15.70;99.90;;;;;;5004581;28;39168;-78
2021/09/26 00:30:15;;;;;;;33.30;22.50;;;15.70;99.90;;;;;;5008185;28;37760;-78
2021/09/26 00:32:43;;;;;;;34.95;23.45;;;15.70;99.90;;;;;;5001406;28;37686;-79
2021/09/26 00:35:09;;;;;;;36.85;23.42;;;15.70;99.90;;;;;;5001343;28;38856;-78
2021/09/26 00:37:36;;;;;;;34.30;23.63;;;15.70;99.90;;;;;;4999996;28;39143;-79
2021/09/26 00:40:04;;;;;;;36.47;24.55;;;15.70;99.90;;;;;;4999893;28;39854;-78
2021/09/26 00:42:30;;;;;;;35.05;24.20;;;15.70;99.90;;;;;;4985272;28;48766;-79
2021/09/26 00:44:57;;;;;;;38.97;26.33;;;15.70;99.90;;;;;;4976304;28;38932;-78
2021/09/26 00:47:25;;;;;;;40.75;23.92;;;15.60;99.90;;;;;;4980677;28;38426;-79
2021/09/26 00:49:51;;;;;;;38.15;25.65;;;15.60;99.90;;;;;;4985470;28;38043;-79
2021/09/26 00:52:19;;;;;;;37.88;24.85;;;15.60;99.90;;;;;;4985027;28;38119;-78
2021/09/26 00:54:46;;;;;;;32.83;22.33;;;15.60;99.90;;;;;;4995802;28;40433;-79
2021/09/26 00:57:12;;;;;;;35.42;22.70;;;15.50;99.90;;;;;;4993888;28;37738;-78
2021/09/26 00:59:38;;;;;;;37.22;24.75;;;15.50;99.90;;;;;;5002196;28;38205;-78
2021/09/26 01:02:05;;;;;;;42.13;25.33;;;15.50;99.90;;;;;;4996861;28;39258;-79
2021/09/26 01:04:31;;;;;;;39.05;25.75;;;15.50;99.90;;;;;;4996836;28;40889;-78
2021/09/26 01:07:05;;;;;;;37.65;25.27;;;15.40;99.90;;;;;;5001350;28;38076;-79
2021/09/26 01:09:56;;;;;;;32.10;22.70;;;15.40;99.90;;;;;;4974920;28;49378;-79
2021/09/26 01:12:51;;;;;;;38.28;25.52;;;15.40;99.90;;;;;;4990083;28;37310;-78
2021/09/26 01:15:42;;;;;;;36.55;24.58;;;15.40;99.90;;;;;;5002182;28;38624;-79
2021/09/26 01:18:17;;;;;;;34.05;23.10;;;15.50;99.90;;;;;;5002306;28;39284;-78
2021/09/26 01:20:55;;;;;;;38.30;23.63;;;15.40;99.90;;;;;;5002064;28;36917;-79
2021/09/26 01:23:21;;;;;;;35.97;23.10;;;15.40;99.90;;;;;;4995319;28;37140;-78
2021/09/26 01:26:17;;;;;;;35.63;24.55;;;15.40;99.90;;;;;;5002145;28;38963;-78
2021/09/26 01:29:04;;;;;;;36.50;24.40;;;15.30;99.90;;;;;;5012797;28;47340;-79
2021/09/26 01:31:35;;;;;;;44.15;26.45;;;15.30;99.90;;;;;;5010652;28;36466;-78
2021/09/26 01:34:12;;;;;;;36.45;24.38;;;15.30;99.90;;;;;;5005514;28;38137;-78
2021/09/26 01:36:44;;;;;;;42.55;25.08;;;15.30;99.90;;;;;;4972978;28;47047;-78
2021/09/26 01:39:19;;;;;;;43.17;26.75;;;15.30;99.90;;;;;;4993506;28;37089;-78
2021/09/26 01:41:55;;;;;;;39.05;26.08;;;15.30;99.90;;;;;;4998879;28;38094;-78
2021/09/26 01:44:38;;;;;;;35.40;25.13;;;15.30;99.90;;;;;;5002556;28;37434;-78
2021/09/26 01:47:06;;;;;;;38.20;24.58;;;15.30;99.90;;;;;;5003444;28;40547;-78
2021/09/26 01:49:38;;;;;;;40.13;25.35;;;15.30;99.90;;;;;;4998233;28;39175;-78
2021/09/26 01:52:09;;;;;;;42.33;27.83;;;15.20;99.90;;;;;;5000899;28;40033;-78
2021/09/26 01:54:36;;;;;;;37.67;24.63;;;15.20;99.90;;;;;;5002303;28;38403;-78
2021/09/26 01:57:03;;;;;;;29.98;21.92;;;15.20;99.90;;;;;;4999159;28;39358;-77
2021/09/26 01:59:30;;;;;;;37.97;24.02;;;15.20;99.90;;;;;;5003049;28;39197;-78
2021/09/26 02:01:56;;;;;;;30.58;20.90;;;15.20;99.90;;;;;;5000531;28;37738;-78
2021/09/26 02:04:25;;;;;;;35.97;24.08;;;15.20;99.90;;;;;;5003104;28;38464;-78
2021/09/26 02:06:52;;;;;;;33.28;22.35;;;15.20;99.90;;;;;;5001309;28;38713;-78
2021/09/26 02:09:19;;;;;;;35.13;23.15;;;15.20;99.90;;;;;;4996310;28;38292;-78
2021/09/26 02:11:46;;;;;;;32.38;22.30;;;15.20;99.90;;;;;;5001874;28;38227;-79
2021/09/26 02:14:14;;;;;;;39.20;25.80;;;15.20;99.90;;;;;;5000087;28;39166;-78
2021/09/26 02:16:40;;;;;;;37.83;25.27;;;15.20;99.90;;;;;;4995322;28;39290;-79
2021/09/26 02:19:07;;;;;;;34.65;23.48;;;15.20;99.90;;;;;;4997594;28;38332;-78
2021/09/26 02:21:33;;;;;;;34.08;23.98;;;15.30;99.90;;;;;;5004288;28;38575;-78
2021/09/26 02:24:02;;;;;;;34.75;23.90;;;15.30;99.90;;;;;;5006042;28;36959;-77
2021/09/26 02:26:29;;;;;;;36.65;24.88;;;15.30;99.90;;;;;;5000597;28;48728;-78
2021/09/26 02:28:56;;;;;;;31.02;23.15;;;15.40;99.90;;;;;;5007379;28;40167;-78
2021/09/26 02:31:22;;;;;;;30.77;22.30;;;15.40;99.90;;;;;;5004077;28;38270;-78
2021/09/26 02:33:48;;;;;;;33.35;24.15;;;15.50;99.90;;;;;;5006088;28;38434;-77
2021/09/26 02:36:16;;;;;;;37.47;23.02;;;15.50;99.90;;;;;;5002676;28;39685;-77
2021/09/26 02:38:42;;;;;;;38.67;25.33;;;15.60;99.90;;;;;;5004456;28;38775;-77
2021/09/26 02:41:33;;;;;;;30.13;21.38;;;15.60;99.90;;;;;;5001918;28;37793;-77
2021/09/26 02:44:34;;;;;;;36.85;25.50;;;15.60;99.90;;;;;;5009980;28;38379;-79
2021/09/26 02:47:11;;;;;;;36.67;24.08;;;15.70;99.90;;;;;;4994019;28;47335;-80
2021/09/26 02:49:39;;;;;;;32.53;23.33;;;15.70;99.90;;;;;;4997944;28;47517;-79
2021/09/26 02:52:07;;;;;;;34.72;24.67;;;15.80;99.90;;;;;;4999825;28;38794;-79
2021/09/26 02:54:42;;;;;;;34.58;23.38;;;15.80;99.90;;;;;;5002710;28;38811;-79
2021/09/26 02:57:10;;;;;;;35.05;24.33;;;15.80;99.90;;;;;;4998062;28;40875;-79
2021/09/26 02:59:37;;;;;;;34.63;24.13;;;15.80;99.90;;;;;;5001499;28;38649;-79
2021/09/26 03:02:04;;;;;;;35.78;23.98;;;15.80;99.90;;;;;;5003264;28;38634;-79
2021/09/26 03:04:30;;;;;;;43.05;27.13;;;15.70;99.90;;;;;;5000297;28;37650;-80
2021/09/26 03:06:57;;;;;;;35.30;25.02;;;15.70;99.90;;;;;;4985427;28;38865;-79
2021/09/26 03:09:23;;;;;;;36.20;24.70;;;15.80;99.90;;;;;;5002598;28;38449;-80
2021/09/26 03:11:50;;;;;;;35.05;24.35;;;15.80;99.90;;;;;;5002636;28;38013;-79
2021/09/26 03:14:16;;;;;;;34.47;24.17;;;15.80;99.90;;;;;;5004603;28;37549;-79
2021/09/26 03:16:42;;;;;;;34.90;24.02;;;15.80;99.90;;;;;;4999088;28;39830;-80
2021/09/26 03:19:08;;;;;;;30.73;22.50;;;15.80;99.90;;;;;;5000002;28;39005;-80
2021/09/26 03:21:35;;;;;;;32.97;24.95;;;15.80;99.90;;;;;;5001784;28;38718;-79
2021/09/26 03:24:01;;;;;;;32.10;24.13;;;15.80;99.90;;;;;;5003005;28;38069;-79
2021/09/26 03:26:27;;;;;;;30.40;22.33;;;15.80;99.90;;;;;;5003173;28;38709;-79
2021/09/26 03:28:53;;;;;;;35.63;25.05;;;15.90;99.90;;;;;;5006326;28;38238;-80
2021/09/26 03:31:20;;;;;;;37.80;25.42;;;15.90;99.90;;;;;;5006994;28;37960;-79
2021/09/26 03:33:46;;;;;;;34.85;23.63;;;15.80;99.90;;;;;;5001701;28;37956;-79
2021/09/26 03:36:12;;;;;;;33.92;24.35;;;15.80;99.90;;;;;;5003108;28;39395;-79
2021/09/26 03:38:38;;;;;;;36.80;24.73;;;15.80;99.90;;;;;;5000431;28;39135;-80
2021/09/26 03:41:04;;;;;;;37.03;26.52;;;15.80;99.90;;;;;;5000293;28;38177;-79
2021/09/26 03:43:30;;;;;;;32.05;24.05;;;15.80;99.90;;;;;;5003134;28;38546;-80
2021/09/26 03:45:56;;;;;;;37.00;27.80;;;15.80;99.90;;;;;;5002960;28;38783;-80
2021/09/26 03:48:23;;;;;;;39.22;28.20;;;15.80;99.90;;;;;;5002166;28;38981;-79
2021/09/26 03:50:50;;;;;;;33.95;25.10;;;15.80;99.90;;;;;;4996768;28;38561;-80
2021/09/26 03:53:17;;;;;;;36.80;26.13;;;15.90;99.90;;;;;;4998594;28;37380;-79
2021/09/26 03:55:44;;;;;;;43.60;28.33;;;15.90;99.90;;;;;;5004473;28;39227;-80
2021/09/26 03:58:10;;;;;;;38.03;25.73;;;16.00;99.90;;;;;;5002286;28;40364;-79
2021/09/26 04:00:36;;;;;;;35.45;24.95;;;16.00;99.90;;;;;;5001956;28;39707;-79
2021/09/26 04:03:02;;;;;;;41.30;28.08;;;16.00;99.90;;;;;;5000383;28;38428;-78
2021/09/26 04:05:28;;;;;;;43.70;29.48;;;16.00;99.90;;;;;;4999138;28;39079;-79
2021/09/26 04:07:55;;;;;;;40.33;26.23;;;16.00;99.90;;;;;;5005696;28;38107;-79
2021/09/26 04:10:21;;;;;;;43.80;31.17;;;16.00;99.90;;;;;;4997142;28;38907;-79
2021/09/26 04:12:47;;;;;;;38.08;26.98;;;16.10;99.90;;;;;;4999177;28;38346;-79
2021/09/26 04:15:14;;;;;;;46.33;30.75;;;16.10;99.90;;;;;;5001303;28;39744;-79
2021/09/26 04:17:40;;;;;;;39.38;24.50;;;16.10;99.90;;;;;;5002748;28;38232;-79
2021/09/26 04:20:08;;;;;;;39.35;25.80;;;16.10;99.90;;;;;;5002785;28;38962;-78
2021/09/26 04:22:34;;;;;;;33.40;25.08;;;16.10;99.90;;;;;;5002791;28;37469;-79
2021/09/26 04:25:01;;;;;;;34.88;26.17;;;16.10;99.90;;;;;;5000497;28;39578;-79
2021/09/26 04:27:27;;;;;;;37.80;24.45;;;16.20;99.90;;;;;;4997791;28;39464;-79
2021/09/26 04:29:54;;;;;;;33.33;25.45;;;16.20;99.90;;;;;;5002851;28;39919;-79
2021/09/26 04:32:20;;;;;;;36.33;27.30;;;16.20;99.90;;;;;;5009274;28;38385;-79
2021/09/26 04:34:46;;;;;;;37.08;24.52;;;16.20;99.90;;;;;;5003210;28;39043;-79
2021/09/26 04:37:12;;;;;;;36.55;27.08;;;16.10;99.90;;;;;;5001817;28;37656;-79
2021/09/26 04:39:39;;;;;;;37.25;25.25;;;16.20;99.90;;;;;;5005312;28;38822;-79
2021/09/26 04:42:06;;;;;;;36.35;27.02;;;16.20;99.90;;;;;;4997753;28;38167;-79
2021/09/26 04:44:34;;;;;;;35.80;26.98;;;16.20;99.90;;;;;;5002601;28;39475;-78
2021/09/26 04:47:00;;;;;;;33.75;25.55;;;16.10;99.90;;;;;;4999077;28;38139;-77
2021/09/26 04:49:29;;;;;;;41.75;29.38;;;16.10;99.90;;;;;;4999018;28;40010;-77
2021/09/26 04:51:57;;;;;;;37.58;27.88;;;16.10;99.90;;;;;;5000062;28;40285;-77
2021/09/26 04:54:24;;;;;;;37.50;26.13;;;16.10;99.90;;;;;;5015411;28;40380;-78
2021/09/26 04:56:51;;;;;;;35.50;25.92;;;16.00;99.90;;;;;;5005596;28;38013;-77
2021/09/26 04:59:18;;;;;;;32.83;25.00;;;16.00;99.90;;;;;;5000532;28;38968;-77
2021/09/26 05:01:45;;;;;;;42.15;30.38;;;16.00;99.90;;;;;;5001309;28;37395;-77
2021/09/26 05:04:11;;;;;;;35.55;27.05;;;16.00;99.90;;;;;;5001674;28;40419;-77
2021/09/26 05:06:37;;;;;;;40.45;28.33;;;16.00;99.90;;;;;;4999341;28;38400;-78
2021/09/26 05:09:04;;;;;;;39.92;28.38;;;16.00;99.90;;;;;;4997550;28;39052;-77
2021/09/26 05:11:30;;;;;;;46.22;31.83;;;16.00;99.90;;;;;;5000335;28;37375;-77
2021/09/26 05:13:56;;;;;;;33.05;25.73;;;16.00;99.90;;;;;;4995312;28;39245;-77
2021/09/26 05:16:22;;;;;;;31.55;24.50;;;16.00;99.90;;;;;;4996608;28;39897;-78
2021/09/26 05:18:48;;;;;;;33.22;26.17;;;16.00;99.90;;;;;;4998859;28;39428;-77
2021/09/26 05:21:14;;;;;;;38.50;27.77;;;16.00;99.90;;;;;;4997816;28;37532;-77
2021/09/26 05:23:41;;;;;;;42.63;29.90;;;15.90;99.90;;;;;;4997656;28;37525;-77
2021/09/26 05:26:08;;;;;;;34.22;26.25;;;15.90;99.90;;;;;;4999557;28;38151;-77
2021/09/26 05:28:34;;;;;;;35.78;26.25;;;16.00;99.90;;;;;;4998689;28;38103;-78
2021/09/26 05:31:01;;;;;;;35.63;26.08;;;15.90;99.90;;;;;;5002044;28;37483;-77
2021/09/26 05:33:28;;;;;;;31.05;23.48;;;15.90;99.90;;;;;;4994357;28;49913;-77
2021/09/26 05:35:56;;;;;;;35.90;27.80;;;15.90;99.90;;;;;;4998943;28;39108;-77
2021/09/26 05:38:22;;;;;;;41.30;28.42;;;15.90;99.90;;;;;;5001043;28;38288;-77
2021/09/26 05:40:48;;;;;;;37.80;26.77;;;15.90;99.90;;;;;;5002736;28;38008;-77
2021/09/26 05:43:14;;;;;;;39.45;29.50;;;15.90;99.90;;;;;;5002009;28;38770;-77
2021/09/26 05:45:40;;;;;;;34.95;26.55;;;15.90;99.90;;;;;;4996061;28;38906;-77
2021/09/26 05:48:06;;;;;;;38.78;29.25;;;16.00;99.90;;;;;;5004455;28;38668;-77
2021/09/26 05:50:33;;;;;;;31.60;24.83;;;16.00;99.90;;;;;;4994102;28;38069;-77
2021/09/26 05:53:00;;;;;;;36.40;26.83;;;16.00;99.90;;;;;;4997786;28;39399;-77
2021/09/26 05:55:26;;;;;;;45.95;32.35;;;16.00;99.90;;;;;;5000960;28;40093;-77
2021/09/26 05:57:52;;;;;;;43.35;30.63;;;16.00;99.90;;;;;;5000066;28;38338;-77
2021/09/26 06:00:24;;;;;;;50.50;32.95;;;15.90;99.90;;;;;;4997093;28;37344;-78
2021/09/26 06:02:50;;;;;;;38.65;28.30;;;16.00;99.90;;;;;;5005080;28;40101;-77
2021/09/26 06:05:16;;;;;;;43.03;27.77;;;15.90;99.90;;;;;;5003603;28;39161;-77
2021/09/26 06:07:42;;;;;;;38.25;28.92;;;15.90;99.90;;;;;;5008928;28;39823;-78
2021/09/26 06:10:09;;;;;;;40.53;28.52;;;15.90;99.90;;;;;;5001613;28;35913;-77
2021/09/26 06:12:35;;;;;;;45.17;32.17;;;16.00;99.90;;;;;;5004719;28;39354;-77
2021/09/26 06:15:04;;;;;;;40.25;29.52;;;16.00;99.90;;;;;;4999721;28;38260;-77
2021/09/26 06:17:31;;;;;;;41.80;28.33;;;16.00;99.90;;;;;;4987056;28;47026;-77
2021/09/26 06:19:58;;;;;;;38.25;28.80;;;16.00;99.90;;;;;;5001503;28;37448;-77
2021/09/26 06:22:25;;;;;;;35.42;28.00;;;16.10;99.90;;;;;;4999926;28;38862;-78
2021/09/26 06:24:53;;;;;;;38.97;29.95;;;16.10;99.90;;;;;;4999837;28;40542;-77
2021/09/26 06:27:22;;;;;;;40.35;30.50;;;16.20;99.90;;;;;;5006429;28;36474;-77
2021/09/26 06:29:48;;;;;;;33.45;27.10;;;16.20;99.90;;;;;;5001083;28;38071;-77
2021/09/26 06:32:14;;;;;;;38.47;28.40;;;16.30;99.90;;;;;;5000971;28;39460;-77
2021/09/26 06:34:40;;;;;;;33.63;27.58;;;16.30;99.90;;;;;;5002378;28;39843;-77
2021/09/26 06:37:07;;;;;;;37.80;26.35;;;16.40;99.90;;;;;;5004077;28;39411;-77
2021/09/26 06:39:34;;;;;;;38.22;27.27;;;16.40;99.90;;;;;;4999693;28;37143;-77
2021/09/26 06:42:00;;;;;;;34.47;28.33;;;16.40;99.90;;;;;;4995017;28;39027;-77
2021/09/26 06:44:27;;;;;;;35.90;25.67;;;16.40;99.90;;;;;;5000931;28;47440;-78
2021/09/26 06:46:53;;;;;;;39.33;28.42;;;16.50;99.90;;;;;;5005080;28;38723;-78
2021/09/26 06:49:19;;;;;;;38.80;27.85;;;16.50;99.90;;;;;;4999102;28;37507;-78
2021/09/26 06:51:46;;;;;;;39.95;29.73;;;16.50;99.90;;;;;;5005682;28;37880;-78
2021/09/26 06:54:12;;;;;;;36.42;26.88;;;16.60;99.90;;;;;;5002286;28;38830;-77
2021/09/26 06:56:38;;;;;;;35.22;25.95;;;16.60;99.90;;;;;;5004163;28;37698;-78
2021/09/26 06:59:04;;;;;;;32.35;25.40;;;16.60;99.90;;;;;;4999970;28;39242;-78
2021/09/26 07:01:32;;;;;;;33.83;25.13;;;16.60;99.90;;;;;;4998284;28;46911;-78
2021/09/26 07:03:59;;;;;;;33.92;24.55;;;16.60;99.90;;;;;;4997702;28;39244;-78
2021/09/26 07:06:26;;;;;;;29.80;25.95;;;16.70;99.90;;;;;;5002947;28;38180;-78
2021/09/26 07:08:52;;;;;;;34.30;26.58;;;16.70;99.90;;;;;;5000702;28;38051;-78
2021/09/26 07:11:21;;;;;;;36.50;27.10;;;16.80;99.90;;;;;;5005281;28;38595;-77
2021/09/26 07:13:48;;;;;;;35.45;24.08;;;16.80;99.90;;;;;;5002992;28;38387;-78
2021/09/26 07:16:14;;;;;;;35.08;25.40;;;16.90;99.90;;;;;;5001781;28;37437;-77
2021/09/26 07:18:40;;;;;;;40.15;27.45;;;16.90;99.90;;;;;;5002270;28;37825;-77
2021/09/26 07:21:08;;;;;;;32.17;25.20;;;17.00;99.90;;;;;;4995548;28;37572;-77
2021/09/26 07:23:34;;;;;;;32.95;26.77;;;17.10;99.90;;;;;;5001663;28;38443;-77
2021/09/26 07:26:01;;;;;;;32.25;25.58;;;17.10;99.90;;;;;;5002060;28;37859;-77
2021/09/26 07:28:27;;;;;;;31.30;24.80;;;17.20;99.90;;;;;;5002539;28;47586;-77
2021/09/26 07:30:53;;;;;;;29.30;21.90;;;17.20;99.90;;;;;;5007743;28;38634;-78
2021/09/26 07:33:19;;;;;;;29.10;23.98;;;17.30;99.90;;;;;;5004552;28;37702;-78
2021/09/26 07:35:45;;;;;;;32.00;24.35;;;17.40;99.90;;;;;;5008277;28;38170;-77
2021/09/26 07:38:12;;;;;;;29.15;23.88;;;17.50;99.90;;;;;;5002051;28;36838;-77
2021/09/26 07:40:38;;;;;;;29.63;21.52;;;17.60;99.90;;;;;;5001020;28;39306;-77
2021/09/26 07:43:06;;;;;;;25.65;20.48;;;17.90;99.90;;;;;;5000386;28;38374;-77
2021/09/26 07:45:33;;;;;;;30.88;20.80;;;18.00;99.90;;;;;;5005182;28;38582;-78
2021/09/26 07:47:59;;;;;;;25.58;21.38;;;18.10;99.90;;;;;;4996654;28;36552;-77
2021/09/26 07:50:26;;;;;;;29.48;20.80;;;18.10;99.90;;;;;;4999599;28;37521;-78
2021/09/26 07:52:55;;;;;;;26.00;19.45;;;18.20;99.90;;;;;;5016177;28;38186;-77
2021/09/26 07:55:21;;;;;;;24.67;19.75;;;18.20;99.90;;;;;;5000224;28;37904;-77
2021/09/26 07:57:47;;;;;;;27.02;20.30;;;18.30;99.90;;;;;;4997296;28;36286;-77
2021/09/26 08:00:15;;;;;;;26.05;21.45;;;18.30;99.90;;;;;;5005808;28;39868;-77
2021/09/26 08:02:42;;;;;;;21.00;18.58;;;18.40;99.90;;;;;;5006639;28;39502;-77
2021/09/26 08:05:09;;;;;;;23.08;20.38;;;18.60;99.90;;;;;;5004758;28;38979;-79
2021/09/26 08:07:36;;;;;;;24.65;19.80;;;18.70;99.90;;;;;;5029141;28;36519;-78
2021/09/26 08:10:08;;;;;;;27.88;22.60;;;18.80;99.90;;;;;;5014878;28;37653;-78
2021/09/26 08:12:34;;;;;;;25.05;21.00;;;18.90;99.90;;;;;;4990232;28;47061;-79
2021/09/26 08:15:01;;;;;;;24.05;19.50;;;18.80;99.90;;;;;;5009080;28;37688;-79
2021/09/26 08:17:27;;;;;;;26.73;20.23;;;18.80;99.90;;;;;;4996842;28;47269;-79
2021/09/26 08:19:53;;;;;;;24.65;20.48;;;18.80;99.90;;;;;;4997906;28;38879;-79
2021/09/26 08:22:19;;;;;;;23.10;18.80;;;18.80;99.90;;;;;;4998366;28;38591;-79
2021/09/26 08:24:45;;;;;;;28.17;21.17;;;18.80;99.90;;;;;;5008737;28;37917;-78
2021/09/26 08:27:13;;;;;;;19.83;17.50;;;19.00;99.90;;;;;;5000011;28;37731;-82
2021/09/26 08:29:40;;;;;;;27.40;20.50;;;19.10;99.90;;;;;;5022426;28;38726;-81
2021/09/26 08:32:09;;;;;;;25.95;20.80;;;19.00;99.90;;;;;;5002148;28;37985;-82
2021/09/26 08:34:35;;;;;;;22.00;19.08;;;19.10;99.90;;;;;;5015680;28;37511;-81
2021/09/26 08:37:07;;;;;;;26.85;20.05;;;19.00;99.90;;;;;;5015466;28;37232;-78
2021/09/26 08:39:36;;;;;;;24.90;19.42;;;19.00;99.90;;;;;;4998903;28;38527;-80
2021/09/26 08:42:07;;;;;;;24.13;19.42;;;18.90;99.90;;;;;;5006532;28;38285;-80
2021/09/26 08:44:40;;;;;;;26.23;20.00;;;18.90;99.90;;;;;;5023113;28;37640;-80
2021/09/26 08:47:11;;;;;;;24.35;20.02;;;18.90;99.90;;;;;;5000423;28;34325;-81
2021/09/26 08:49:38;;;;;;;22.95;19.50;;;18.90;99.90;;;;;;4963854;28;37751;-81
2021/09/26 08:52:05;;;;;;;23.17;19.48;;;19.10;99.90;;;;;;4980811;28;37520;-82
2021/09/26 08:54:32;;;;;;;25.00;20.30;;;19.20;99.90;;;;;;4986605;28;38403;-80
2021/09/26 08:56:58;;;;;;;25.73;20.50;;;19.10;99.90;;;;;;4981865;28;36498;-81
2021/09/26 08:59:33;;;;;;;26.25;20.90;;;19.00;99.90;;;;;;5003579;28;39073;-81
2021/09/26 09:02:03;;;;;;;28.98;22.95;;;18.90;99.90;;;;;;5017638;28;37281;-81
2021/09/26 09:04:38;;;;;;;24.92;20.83;;;18.90;99.90;;;;;;5029901;28;47502;-82
2021/09/26 09:07:06;;;;;;;24.25;21.20;;;18.90;99.90;;;;;;5030625;28;36255;-83
2021/09/26 09:09:54;;;;;;;24.77;20.88;;;18.90;99.90;;;;;;5029177;28;37492;-83
2021/09/26 09:12:40;;;;;;;26.13;21.35;;;18.80;99.90;;;;;;5015957;28;39146;-82
2021/09/26 09:15:15;;;;;;;25.50;20.85;;;19.00;99.90;;;;;;5026735;28;37106;-83
2021/09/26 09:17:43;;;;;;;27.52;20.63;;;19.20;99.90;;;;;;5015854;28;37016;-81
2021/09/26 09:20:12;;;;;;;25.33;20.08;;;19.30;99.90;;;;;;5009244;28;37867;-80
2021/09/26 09:22:39;;;;;;;25.25;21.00;;;19.30;99.90;;;;;;5007616;28;38535;-81
2021/09/26 09:25:05;;;;;;;25.38;19.05;;;19.40;99.90;;;;;;5006246;28;37600;-81
2021/09/26 09:27:32;;;;;;;25.13;20.02;;;19.40;99.90;;;;;;5004764;28;36122;-80
2021/09/26 09:29:58;;;;;;;26.90;20.35;;;19.60;99.90;;;;;;5015670;28;37684;-81
2021/09/26 09:32:24;;;;;;;22.80;18.45;;;19.70;99.90;;;;;;5004391;28;37008;-81
2021/09/26 09:34:50;;;;;;;24.63;19.58;;;19.70;99.90;;;;;;5002971;28;37520;-81
2021/09/26 09:37:22;;;;;;;21.38;17.85;;;19.90;99.90;;;;;;4994597;28;36408;-80
2021/09/26 09:40:15;;;;;;;25.23;20.02;;;20.20;99.90;;;;;;5002886;28;38677;-81
2021/09/26 09:42:47;;;;;;;25.80;18.98;;;20.30;99.90;;;;;;5001194;28;48791;-82
2021/09/26 09:45:28;;;;;;;;;;;20.40;99.90;;;;;;5010181;28;38315;-82
2021/09/26 09:48:14;;;;;;;21.60;17.52;;;20.40;99.90;;;;;;5014487;28;38549;-80
2021/09/26 09:51:06;;;;;;;20.17;16.48;;;20.60;99.90;;;;;;5016083;28;48640;-80
2021/09/26 09:53:45;;;;;;;23.60;17.55;;;21.00;99.90;;;;;;5010982;28;48460;-82
2021/09/26 09:56:16;;;;;;;19.05;16.20;;;21.00;99.90;;;;;;5022772;28;38404;-80
2021/09/26 09:58:58;;;;;;;22.17;16.85;;;20.90;99.90;;;;;;5019046;28;36323;-80
2021/09/26 10:01:33;;;;;;;20.53;16.97;;;20.80;99.90;;;;;;5010086;28;39504;-80
2021/09/26 10:04:00;;;;;;;20.88;16.83;;;21.00;99.90;;;;;;4995972;28;38693;-81
2021/09/26 10:06:37;;;;;;;17.33;15.45;;;20.90;99.90;;;;;;5012407;28;38973;-81
2021/09/26 10:09:23;;;;;;;19.33;16.02;;;21.10;99.90;;;;;;5006454;28;37700;-80
2021/09/26 10:11:59;;;;;;;18.88;15.07;;;21.30;99.90;;;;;;5003934;28;39024;-81
2021/09/26 10:14:31;;;;;;;18.67;15.55;;;21.60;99.90;;;;;;5004952;28;36991;-81
2021/09/26 10:17:01;;;;;;;18.80;13.98;;;21.70;99.90;;;;;;5009591;28;37547;-82
2021/09/26 10:19:30;;;;;;;18.77;15.23;;;21.70;99.90;;;;;;5011999;28;47538;-80
2021/09/26 10:21:59;;;;;;;16.02;14.32;;;21.80;99.90;;;;;;5000311;28;39381;-80
2021/09/26 10:24:28;;;;;;;21.67;15.98;;;21.90;99.90;;;;;;5004545;28;38613;-80
2021/09/26 10:26:58;;;;;;;20.42;15.88;;;21.90;99.90;;;;;;5018282;28;36922;-79
2021/09/26 10:29:28;;;;;;;17.40;13.73;;;21.70;99.90;;;;;;5014760;28;37538;-80
2021/09/26 10:31:56;;;;;;;18.50;15.70;;;21.90;99.90;;;;;;5002610;28;37474;-79
2021/09/26 10:34:24;;;;;;;17.88;15.73;;;22.00;99.90;;;;;;5016535;28;37723;-80
2021/09/26 10:36:51;;;;;;;18.02;15.45;;;22.00;99.90;;;;;;5011724;28;37854;-80
2021/09/26 10:39:17;;;;;;;18.77;15.43;;;22.20;99.90;;;;;;5019308;28;37731;-80
2021/09/26 10:42:05;;;;;;;17.85;14.60;;;22.30;99.90;;;;;;4998191;28;38154;-79
2021/09/26 10:44:31;;;;;;;25.65;15.15;;;22.50;99.90;;;;;;4995800;28;47461;-79
2021/09/26 10:47:17;;;;;;;17.92;15.13;;;22.60;99.90;;;;;;5005677;28;37265;-80
2021/09/26 10:49:48;;;;;;;16.15;14.43;;;22.60;99.90;;;;;;5001192;28;47478;-80
2021/09/26 10:52:34;;;;;;;17.80;14.27;;;22.80;99.90;;;;;;5002267;28;39217;-80
2021/09/26 10:55:18;;;;;;;15.13;13.55;;;22.90;99.90;;;;;;5001394;28;38546;-80
2021/09/26 10:58:00;;;;;;;17.52;13.65;;;22.90;99.90;;;;;;5021584;28;47524;-79
2021/09/26 11:00:56;;;;;;;16.88;14.05;;;22.70;99.90;;;;;;5009961;28;37832;-80
2021/09/26 11:03:36;;;;;;;16.63;13.48;;;22.50;99.90;;;;;;4987940;28;39688;-80
2021/09/26 11:06:23;;;;;;;15.55;13.88;;;22.60;99.90;;;;;;5002450;28;39472;-81
2021/09/26 11:08:58;;;;;;;15.50;13.85;;;22.30;99.90;;;;;;5004043;28;37675;-80
2021/09/26 11:11:38;;;;;;;15.57;13.10;;;22.40;99.90;;;;;;5005937;28;36722;-80
2021/09/26 11:14:06;;;;;;;16.55;14.68;;;22.70;99.90;;;;;;4996530;28;39241;-80
2021/09/26 11:16:57;;;;;;;20.08;15.40;;;23.00;99.90;;;;;;5009640;28;37483;-80
2021/09/26 11:19:27;;;;;;;17.00;14.23;;;22.80;99.90;;;;;;4998647;28;38806;-80
2021/09/26 11:22:16;;;;;;;18.52;15.85;;;22.80;99.90;;;;;;4992958;28;38085;-79
2021/09/26 11:24:55;;;;;;;18.33;15.90;;;22.90;99.90;;;;;;5006597;28;46523;-80
2021/09/26 11:27:31;;;;;;;16.92;15.13;;;23.00;99.90;;;;;;4998646;28;39399;-81
2021/09/26 11:30:03;;;;;;;19.00;15.43;;;23.10;99.90;;;;;;5007297;28;37966;-79
2021/09/26 11:32:31;;;;;;;15.70;14.00;;;23.30;99.90;;;;;;5008470;28;48924;-79
2021/09/26 11:35:03;;;;;;;16.42;13.50;;;23.20;99.90;;;;;;5007801;28;38727;-80
2021/09/26 11:37:35;;;;;;;15.93;13.90;;;23.40;99.90;;;;;;5006890;28;49824;-80
2021/09/26 11:40:02;;;;;;;;;;;23.50;99.90;;;;;;5006411;28;36813;-78
2021/09/26 11:42:34;;;;;;;15.60;13.00;;;23.70;99.90;;;;;;5000650;28;38822;-79
2021/09/26 11:45:02;;;;;;;;;;;23.50;99.90;;;;;;5013673;28;37789;-81
2021/09/26 11:47:31;;;;;;;16.77;14.73;;;23.30;99.90;;;;;;5006769;28;48890;-80
2021/09/26 11:50:05;;;;;;;18.98;15.48;;;23.40;99.90;;;;;;5015125;28;38882;-82
2021/09/26 11:52:38;;;;;;;17.40;14.07;;;23.60;99.90;;;;;;5010086;28;46888;-81
2021/09/26 11:55:05;;;;;;;16.25;12.93;;;23.40;99.90;;;;;;4991504;28;39559;-82
2021/09/26 11:57:31;;;;;;;15.45;13.75;;;23.50;99.90;;;;;;4997188;28;47012;-80
2021/09/26 11:59:57;;;;;;;19.20;16.10;;;23.60;99.90;;;;;;5006121;28;39685;-80
2021/09/26 12:02:23;;;;;;;18.00;15.85;;;23.40;99.90;;;;;;5005036;28;36664;-80
2021/09/26 12:04:49;;;;;;;17.63;15.70;;;23.00;99.90;;;;;;5005478;28;40457;-80
2021/09/26 12:07:16;;;;;;;18.38;15.18;;;22.60;99.90;;;;;;5002350;28;38152;-81
2021/09/26 12:09:50;;;;;;;17.85;14.48;;;22.60;99.90;;;;;;4997036;28;37395;-80
2021/09/26 12:12:21;;;;;;;14.48;12.90;;;22.30;99.90;;;;;;4999828;28;37836;-81
2021/09/26 12:14:50;;;;;;;16.20;13.75;;;22.20;99.90;;;;;;5007222;28;38689;-82
2021/09/26 12:17:26;;;;;;;19.13;13.52;;;22.40;99.90;;;;;;5005670;28;40317;-81
2021/09/26 12:20:00;;;;;;;14.90;12.05;;;22.70;99.90;;;;;;5002030;28;37949;-81
2021/09/26 12:22:28;;;;;;;13.68;12.10;;;22.80;99.90;;;;;;5002537;28;38902;-80
2021/09/26 12:24:58;;;;;;;16.50;11.85;;;22.70;99.90;;;;;;5004912;28;40125;-81
2021/09/26 12:27:32;;;;;;;15.95;12.23;;;22.80;99.90;;;;;;5002628;28;39698;-81
2021/09/26 12:30:05;;;;;;;13.63;11.82;;;22.70;99.90;;;;;;5001583;28;36632;-80
2021/09/26 12:32:39;;;;;;;15.40;11.30;;;22.70;99.90;;;;;;5019131;28;47135;-81
2021/09/26 12:35:13;;;;;;;14.38;11.77;;;23.20;99.90;;;;;;5002478;28;40764;-80
2021/09/26 12:37:48;;;;;;;15.43;12.30;;;23.60;99.90;;;;;;5005391;28;38175;-82
2021/09/26 12:40:22;;;;;;;12.48;11.25;;;23.60;99.90;;;;;;5001132;28;38369;-81